KFME METAR and TAF | Updated Today

KFME METAR

Tipton Airport

Observation time: 3 min. ago

KFME 061909Z AUTO 34007G16KT 10SM OVC050 10/M03 A3011 RMK AO1

Need help? Read our tutorial on how to read METARs or read the parsed version below.

Tipton Airport (KFME) METAR

  • Weather conditions on Mon, 06 Feb 2023 19:09:00 +0000 (3 min. ago):
  • Present conditions: Dry
  • Clouds: Overcast sky at 1524 meters
  • Visibility: 16093 meters
  • Wind: 340 degrees at 7 knots
  • Temperature: 10 celsius
  • Dew point: -3 celsius
  • Pressure: 30.11 inHg
  • Remarks: AO1


Useful to know...